sensor_id;sensor_type;location;lat;lon;timestamp;pressure;altitude;pressure_sealevel;temperature;humidity
54306;BME280;66145;45.188;5.712;2024-03-29T00:01:47;97657.91;;;16.77;48.84
54306;BME280;66145;45.188;5.712;2024-03-29T00:04:12;97641.06;;;16.63;48.79
54306;BME280;66145;45.188;5.712;2024-03-29T00:06:37;97661.41;;;16.78;48.88
54306;BME280;66145;45.188;5.712;2024-03-29T00:09:03;97648.31;;;16.58;48.84
54306;BME280;66145;45.188;5.712;2024-03-29T00:11:28;97673.16;;;16.78;48.78
54306;BME280;66145;45.188;5.712;2024-03-29T00:13:54;97658.56;;;16.74;48.93
54306;BME280;66145;45.188;5.712;2024-03-29T00:16:23;97669.59;;;16.78;49.00
54306;BME280;66145;45.188;5.712;2024-03-29T00:18:51;97657.09;;;16.77;48.92
54306;BME280;66145;45.188;5.712;2024-03-29T00:21:17;97629.22;;;16.71;48.82
54306;BME280;66145;45.188;5.712;2024-03-29T00:23:42;97627.97;;;16.68;48.79
54306;BME280;66145;45.188;5.712;2024-03-29T00:26:09;97634.69;;;16.71;48.84
54306;BME280;66145;45.188;5.712;2024-03-29T00:28:34;97637.19;;;16.76;48.95
54306;BME280;66145;45.188;5.712;2024-03-29T00:30:59;97627.19;;;16.68;48.91
54306;BME280;66145;45.188;5.712;2024-03-29T00:33:25;97632.09;;;16.75;48.79
54306;BME280;66145;45.188;5.712;2024-03-29T00:35:50;97615.25;;;16.72;48.73
54306;BME280;66145;45.188;5.712;2024-03-29T00:38:15;97558.13;;;16.55;48.91
54306;BME280;66145;45.188;5.712;2024-03-29T00:40:41;97609.13;;;16.76;48.85
54306;BME280;66145;45.188;5.712;2024-03-29T00:43:06;97606.91;;;16.69;48.71
54306;BME280;66145;45.188;5.712;2024-03-29T00:45:32;97591.56;;;16.77;48.78
54306;BME280;66145;45.188;5.712;2024-03-29T00:47:58;97583.72;;;16.75;48.63
54306;BME280;66145;45.188;5.712;2024-03-29T00:50:23;97598.63;;;16.78;48.64
54306;BME280;66145;45.188;5.712;2024-03-29T00:52:49;97581.56;;;16.68;48.63
54306;BME280;66145;45.188;5.712;2024-03-29T00:55:15;97588.84;;;16.77;48.83
54306;BME280;66145;45.188;5.712;2024-03-29T00:57:40;97609.66;;;16.69;48.66
54306;BME280;66145;45.188;5.712;2024-03-29T01:00:06;97599.88;;;16.68;48.69
54306;BME280;66145;45.188;5.712;2024-03-29T01:02:32;97580.53;;;16.61;48.75
54306;BME280;66145;45.188;5.712;2024-03-29T01:04:57;97606.69;;;16.62;48.84
54306;BME280;66145;45.188;5.712;2024-03-29T01:07:23;97620.13;;;16.67;48.71
54306;BME280;66145;45.188;5.712;2024-03-29T01:09:48;97614.13;;;16.73;48.90
54306;BME280;66145;45.188;5.712;2024-03-29T01:12:13;97597.47;;;16.66;48.58
54306;BME280;66145;45.188;5.712;2024-03-29T01:14:39;97603.31;;;16.77;48.62
54306;BME280;66145;45.188;5.712;2024-03-29T01:17:04;97599.44;;;16.66;48.78
54306;BME280;66145;45.188;5.712;2024-03-29T01:19:31;97584.19;;;16.65;48.70
54306;BME280;66145;45.188;5.712;2024-03-29T01:21:57;97574.41;;;16.64;48.68
54306;BME280;66145;45.188;5.712;2024-03-29T01:24:22;97569.41;;;16.66;48.69
54306;BME280;66145;45.188;5.712;2024-03-29T01:26:47;97550.63;;;16.52;48.72
54306;BME280;66145;45.188;5.712;2024-03-29T01:29:13;97576.66;;;16.74;48.74
54306;BME280;66145;45.188;5.712;2024-03-29T01:31:38;97584.88;;;16.74;48.75
54306;BME280;66145;45.188;5.712;2024-03-29T01:34:03;97575.44;;;16.71;48.73
54306;BME280;66145;45.188;5.712;2024-03-29T01:36:29;97556.53;;;16.54;48.71
54306;BME280;66145;45.188;5.712;2024-03-29T01:38:54;97586.91;;;16.77;48.58
54306;BME280;66145;45.188;5.712;2024-03-29T01:41:22;97591.91;;;16.75;48.77
54306;BME280;66145;45.188;5.712;2024-03-29T01:43:49;97604.31;;;16.72;48.75
54306;BME280;66145;45.188;5.712;2024-03-29T01:46:15;97577.59;;;16.66;48.78
54306;BME280;66145;45.188;5.712;2024-03-29T01:48:41;97602.38;;;16.73;48.72
54306;BME280;66145;45.188;5.712;2024-03-29T01:51:06;97615.00;;;16.78;48.72
54306;BME280;66145;45.188;5.712;2024-03-29T01:53:32;97615.56;;;16.71;48.55
54306;BME280;66145;45.188;5.712;2024-03-29T01:55:59;97616.50;;;16.75;48.71
54306;BME280;66145;45.188;5.712;2024-03-29T01:58:26;97596.34;;;16.67;48.76
54306;BME280;66145;45.188;5.712;2024-03-29T02:00:55;97591.69;;;16.68;48.67
54306;BME280;66145;45.188;5.712;2024-03-29T02:03:22;97591.34;;;16.69;48.45
54306;BME280;66145;45.188;5.712;2024-03-29T02:05:48;97578.84;;;16.68;48.54
54306;BME280;66145;45.188;5.712;2024-03-29T02:08:14;97567.25;;;16.71;48.57
54306;BME280;66145;45.188;5.712;2024-03-29T02:10:41;97591.34;;;16.82;48.43
54306;BME280;66145;45.188;5.712;2024-03-29T02:13:07;97573.63;;;16.76;48.35
54306;BME280;66145;45.188;5.712;2024-03-29T02:15:32;97574.19;;;16.81;48.31
54306;BME280;66145;45.188;5.712;2024-03-29T02:17:58;97566.22;;;16.76;48.38
54306;BME280;66145;45.188;5.712;2024-03-29T02:20:24;97570.63;;;16.81;48.28
54306;BME280;66145;45.188;5.712;2024-03-29T02:23:06;97566.09;;;16.72;48.43
54306;BME280;66145;45.188;5.712;2024-03-29T02:25:33;97539.03;;;16.55;48.21
54306;BME280;66145;45.188;5.712;2024-03-29T02:27:59;97594.19;;;16.85;48.00
54306;BME280;66145;45.188;5.712;2024-03-29T02:30:26;97577.22;;;16.80;48.22
54306;BME280;66145;45.188;5.712;2024-03-29T02:32:51;97573.25;;;16.77;48.10
54306;BME280;66145;45.188;5.712;2024-03-29T02:35:17;97573.38;;;16.81;48.32
54306;BME280;66145;45.188;5.712;2024-03-29T02:37:42;97575.19;;;16.77;48.20
54306;BME280;66145;45.188;5.712;2024-03-29T02:40:07;97583.25;;;16.85;48.30
54306;BME280;66145;45.188;5.712;2024-03-29T02:42:34;97588.97;;;16.80;48.17
54306;BME280;66145;45.188;5.712;2024-03-29T02:45:01;97585.88;;;16.82;48.09
54306;BME280;66145;45.188;5.712;2024-03-29T02:47:26;97568.16;;;16.76;48.29
54306;BME280;66145;45.188;5.712;2024-03-29T02:49:51;97571.44;;;16.81;48.45
54306;BME280;66145;45.188;5.712;2024-03-29T02:52:17;97550.03;;;16.71;48.38
54306;BME280;66145;45.188;5.712;2024-03-29T02:54:42;97536.66;;;16.66;48.54
54306;BME280;66145;45.188;5.712;2024-03-29T02:57:08;97551.88;;;16.79;48.37
54306;BME280;66145;45.188;5.712;2024-03-29T02:59:33;97540.72;;;16.72;48.30
54306;BME280;66145;45.188;5.712;2024-03-29T03:01:59;97541.19;;;16.74;48.28
54306;BME280;66145;45.188;5.712;2024-03-29T03:04:24;97499.78;;;16.60;48.48
54306;BME280;66145;45.188;5.712;2024-03-29T03:06:50;97519.69;;;16.72;48.45
54306;BME280;66145;45.188;5.712;2024-03-29T03:09:15;97524.69;;;16.83;48.28
54306;BME280;66145;45.188;5.712;2024-03-29T03:11:59;97508.41;;;16.74;48.17
54306;BME280;66145;45.188;5.712;2024-03-29T03:14:25;97515.81;;;16.73;48.30
54306;BME280;66145;45.188;5.712;2024-03-29T03:16:50;97503.63;;;16.71;48.23
54306;BME280;66145;45.188;5.712;2024-03-29T03:19:15;97490.22;;;16.78;48.37
54306;BME280;66145;45.188;5.712;2024-03-29T03:21:41;97502.84;;;16.83;48.34
54306;BME280;66145;45.188;5.712;2024-03-29T03:24:08;97485.22;;;16.80;48.38
54306;BME280;66145;45.188;5.712;2024-03-29T03:26:34;97449.88;;;16.59;48.33
54306;BME280;66145;45.188;5.712;2024-03-29T03:28:59;97475.53;;;16.83;48.19
54306;BME280;66145;45.188;5.712;2024-03-29T03:31:25;97481.00;;;16.83;48.41
54306;BME280;66145;45.188;5.712;2024-03-29T03:33:50;97458.03;;;16.71;48.24
54306;BME280;66145;45.188;5.712;2024-03-29T03:36:15;97453.81;;;16.74;48.15
54306;BME280;66145;45.188;5.712;2024-03-29T03:38:41;97447.78;;;16.68;48.39
54306;BME280;66145;45.188;5.712;2024-03-29T03:41:07;97420.16;;;16.57;48.63
54306;BME280;66145;45.188;5.712;2024-03-29T03:43:32;97443.44;;;16.80;48.49
54306;BME280;66145;45.188;5.712;2024-03-29T03:46:01;97444.25;;;16.80;48.40
54306;BME280;66145;45.188;5.712;2024-03-29T03:48:27;97432.78;;;16.75;48.34
54306;BME280;66145;45.188;5.712;2024-03-29T03:50:54;97426.88;;;16.72;48.64
54306;BME280;66145;45.188;5.712;2024-03-29T03:53:19;97432.19;;;16.81;48.54
54306;BME280;66145;45.188;5.712;2024-03-29T03:55:45;97390.91;;;16.70;48.55
54306;BME280;66145;45.188;5.712;2024-03-29T03:58:10;97378.19;;;16.62;48.49
54306;BME280;66145;45.188;5.712;2024-03-29T04:00:35;97407.84;;;16.76;48.67
54306;BME280;66145;45.188;5.712;2024-03-29T04:03:01;97402.38;;;16.76;48.74
54306;BME280;66145;45.188;5.712;2024-03-29T04:05:28;97380.69;;;16.67;48.72
54306;BME280;66145;45.188;5.712;2024-03-29T04:07:56;97393.41;;;16.76;49.15
54306;BME280;66145;45.188;5.712;2024-03-29T04:10:22;97363.94;;;16.69;48.64
54306;BME280;66145;45.188;5.712;2024-03-29T04:12:47;97377.81;;;16.76;48.64
54306;BME280;66145;45.188;5.712;2024-03-29T04:15:12;97361.88;;;16.78;48.73
54306;BME280;66145;45.188;5.712;2024-03-29T04:17:38;97358.03;;;16.79;48.72
54306;BME280;66145;45.188;5.712;2024-03-29T04:20:03;97368.03;;;16.75;48.81
54306;BME280;66145;45.188;5.712;2024-03-29T04:22:30;97368.63;;;16.68;48.89
54306;BME280;66145;45.188;5.712;2024-03-29T04:24:56;97361.78;;;16.75;48.87
54306;BME280;66145;45.188;5.712;2024-03-29T04:27:21;97371.22;;;16.77;48.87
54306;BME280;66145;45.188;5.712;2024-03-29T04:29:46;97368.13;;;16.79;48.77
54306;BME280;66145;45.188;5.712;2024-03-29T04:32:13;97355.88;;;16.72;48.97
54306;BME280;66145;45.188;5.712;2024-03-29T04:34:38;97366.22;;;16.79;48.84
54306;BME280;66145;45.188;5.712;2024-03-29T04:37:03;97349.03;;;16.79;48.80
54306;BME280;66145;45.188;5.712;2024-03-29T04:39:29;97320.19;;;16.65;48.85
54306;BME280;66145;45.188;5.712;2024-03-29T04:41:54;97316.41;;;16.70;48.98
54306;BME280;66145;45.188;5.712;2024-03-29T04:44:24;97338.00;;;16.75;48.82
54306;BME280;66145;45.188;5.712;2024-03-29T04:46:50;97339.69;;;16.80;49.01
54306;BME280;66145;45.188;5.712;2024-03-29T04:49:15;97331.75;;;16.75;48.85
54306;BME280;66145;45.188;5.712;2024-03-29T04:51:43;97338.47;;;16.77;48.80
54306;BME280;66145;45.188;5.712;2024-03-29T04:54:08;97316.41;;;16.70;48.92
54306;BME280;66145;45.188;5.712;2024-03-29T04:56:34;97366.53;;;16.78;48.96
54306;BME280;66145;45.188;5.712;2024-03-29T04:59:01;97327.59;;;16.65;48.77
54306;BME280;66145;45.188;5.712;2024-03-29T05:01:27;97305.09;;;16.55;48.49
54306;BME280;66145;45.188;5.712;2024-03-29T05:03:52;97323.44;;;16.71;48.97
54306;BME280;66145;45.188;5.712;2024-03-29T05:06:18;97335.78;;;16.65;48.92
54306;BME280;66145;45.188;5.712;2024-03-29T05:08:43;97355.28;;;16.79;48.79
54306;BME280;66145;45.188;5.712;2024-03-29T05:11:08;97370.53;;;16.80;48.58
54306;BME280;66145;45.188;5.712;2024-03-29T05:13:36;97368.94;;;16.79;48.82
54306;BME280;66145;45.188;5.712;2024-03-29T05:16:01;97344.00;;;16.81;48.89
54306;BME280;66145;45.188;5.712;2024-03-29T05:18:27;97365.41;;;16.79;49.02
54306;BME280;66145;45.188;5.712;2024-03-29T05:20:52;97347.56;;;16.81;48.97
54306;BME280;66145;45.188;5.712;2024-03-29T05:23:17;97376.00;;;16.80;48.70
54306;BME280;66145;45.188;5.712;2024-03-29T05:25:43;97362.38;;;16.68;48.60
54306;BME280;66145;45.188;5.712;2024-03-29T05:28:09;97380.91;;;16.75;48.62
54306;BME280;66145;45.188;5.712;2024-03-29T05:30:34;97376.22;;;16.75;48.73
54306;BME280;66145;45.188;5.712;2024-03-29T05:33:02;97384.06;;;16.77;48.89
54306;BME280;66145;45.188;5.712;2024-03-29T05:35:28;97410.69;;;16.80;48.83
54306;BME280;66145;45.188;5.712;2024-03-29T05:37:53;97393.28;;;16.72;48.72
54306;BME280;66145;45.188;5.712;2024-03-29T05:40:19;97395.34;;;16.75;48.67
54306;BME280;66145;45.188;5.712;2024-03-29T05:42:50;97395.78;;;16.77;48.71
54306;BME280;66145;45.188;5.712;2024-03-29T05:45:29;97399.06;;;16.83;48.41
54306;BME280;66145;45.188;5.712;2024-03-29T05:47:57;97373.50;;;16.75;48.59
54306;BME280;66145;45.188;5.712;2024-03-29T05:50:23;97379.50;;;16.81;48.77
54306;BME280;66145;45.188;5.712;2024-03-29T05:52:51;97404.53;;;16.83;48.76
54306;BME280;66145;45.188;5.712;2024-03-29T05:55:17;97361.13;;;16.65;48.75
54306;BME280;66145;45.188;5.712;2024-03-29T05:57:43;97383.03;;;16.81;48.93
54306;BME280;66145;45.188;5.712;2024-03-29T06:00:11;97387.06;;;16.71;48.84
54306;BME280;66145;45.188;5.712;2024-03-29T06:02:37;97388.84;;;16.80;48.73
54306;BME280;66145;45.188;5.712;2024-03-29T06:05:03;97380.31;;;16.81;48.77
54306;BME280;66145;45.188;5.712;2024-03-29T06:07:30;97431.38;;;16.81;48.70
54306;BME280;66145;45.188;5.712;2024-03-29T06:09:58;97401.34;;;16.81;48.92
54306;BME280;66145;45.188;5.712;2024-03-29T06:12:24;97393.66;;;16.70;48.82
54306;BME280;66145;45.188;5.712;2024-03-29T06:14:49;97407.50;;;16.78;48.69
54306;BME280;66145;45.188;5.712;2024-03-29T06:17:33;97421.59;;;16.80;48.40
54306;BME280;66145;45.188;5.712;2024-03-29T06:20:00;97428.31;;;16.82;48.67
54306;BME280;66145;45.188;5.712;2024-03-29T06:22:28;97414.69;;;16.70;48.91
54306;BME280;66145;45.188;5.712;2024-03-29T06:24:56;97425.72;;;16.73;48.86
54306;BME280;66145;45.188;5.712;2024-03-29T06:27:24;97438.34;;;16.78;48.94
54306;BME280;66145;45.188;5.712;2024-03-29T06:29:50;97442.31;;;16.81;48.89
54306;BME280;66145;45.188;5.712;2024-03-29T06:32:16;97434.38;;;16.76;48.86
54306;BME280;66145;45.188;5.712;2024-03-29T06:34:43;97433.69;;;16.66;49.04
54306;BME280;66145;45.188;5.712;2024-03-29T06:37:09;97421.56;;;16.51;49.02
54306;BME280;66145;45.188;5.712;2024-03-29T06:39:34;97472.13;;;16.73;48.93
54306;BME280;66145;45.188;5.712;2024-03-29T06:41:59;97478.75;;;16.72;49.00
54306;BME280;66145;45.188;5.712;2024-03-29T06:44:25;97472.81;;;16.70;49.03
54306;BME280;66145;45.188;5.712;2024-03-29T06:46:50;97495.31;;;16.80;48.85
54306;BME280;66145;45.188;5.712;2024-03-29T06:49:16;97496.47;;;16.79;48.88
54306;BME280;66145;45.188;5.712;2024-03-29T06:51:41;97486.94;;;16.72;48.89
54306;BME280;66145;45.188;5.712;2024-03-29T06:54:07;97505.91;;;16.81;48.99
54306;BME280;66145;45.188;5.712;2024-03-29T06:56:32;97463.38;;;16.55;48.84
54306;BME280;66145;45.188;5.712;2024-03-29T06:58:58;97494.19;;;16.81;48.68
54306;BME280;66145;45.188;5.712;2024-03-29T07:01:24;97496.91;;;16.81;48.56
54306;BME280;66145;45.188;5.712;2024-03-29T07:03:49;97497.03;;;16.84;48.64
54306;BME280;66145;45.188;5.712;2024-03-29T07:06:15;97505.34;;;16.76;48.81
54306;BME280;66145;45.188;5.712;2024-03-29T07:08:40;97514.22;;;16.85;48.55
54306;BME280;66145;45.188;5.712;2024-03-29T07:11:06;97499.19;;;16.79;48.69
54306;BME280;66145;45.188;5.712;2024-03-29T07:13:31;97512.16;;;16.82;49.03
54306;BME280;66145;45.188;5.712;2024-03-29T07:15:58;97507.97;;;16.84;48.81
54306;BME280;66145;45.188;5.712;2024-03-29T07:18:23;97527.50;;;16.86;48.82
54306;BME280;66145;45.188;5.712;2024-03-29T07:20:49;97521.28;;;16.73;48.65
54306;BME280;66145;45.188;5.712;2024-03-29T07:23:14;97511.59;;;16.76;48.91
54306;BME280;66145;45.188;5.712;2024-03-29T07:25:40;97499.44;;;16.61;48.72
54306;BME280;66145;45.188;5.712;2024-03-29T07:28:06;97522.41;;;16.85;48.67
54306;BME280;66145;45.188;5.712;2024-03-29T07:30:31;97508.75;;;16.85;48.60
54306;BME280;66145;45.188;5.712;2024-03-29T07:32:57;97536.16;;;16.88;48.72
54306;BME280;66145;45.188;5.712;2024-03-29T07:35:22;97534.69;;;16.91;48.74
54306;BME280;66145;45.188;5.712;2024-03-29T07:37:48;97493.66;;;16.63;48.75
54306;BME280;66145;45.188;5.712;2024-03-29T07:40:15;97542.88;;;16.91;48.62
54306;BME280;66145;45.188;5.712;2024-03-29T07:42:41;97557.69;;;16.90;48.73
54306;BME280;66145;45.188;5.712;2024-03-29T07:45:07;97558.91;;;16.93;48.74
54306;BME280;66145;45.188;5.712;2024-03-29T07:47:32;97546.53;;;16.83;48.61
54306;BME280;66145;45.188;5.712;2024-03-29T07:49:57;97522.28;;;16.69;49.01
54306;BME280;66145;45.188;5.712;2024-03-29T07:52:23;97551.41;;;16.90;48.81
54306;BME280;66145;45.188;5.712;2024-03-29T07:54:48;97501.28;;;16.57;48.81
54306;BME280;66145;45.188;5.712;2024-03-29T07:57:14;97556.41;;;16.87;49.14
54306;BME280;66145;45.188;5.712;2024-03-29T07:59:41;97551.19;;;16.82;48.80
54306;BME280;66145;45.188;5.712;2024-03-29T08:02:06;97554.50;;;16.88;49.00
54306;BME280;66145;45.188;5.712;2024-03-29T08:04:32;97569.38;;;16.91;48.83
54306;BME280;66145;45.188;5.712;2024-03-29T08:06:57;97562.00;;;16.91;48.75
54306;BME280;66145;45.188;5.712;2024-03-29T08:09:22;97547.66;;;16.82;48.96
54306;BME280;66145;45.188;5.712;2024-03-29T08:11:48;97543.78;;;16.83;48.83
54306;BME280;66145;45.188;5.712;2024-03-29T08:14:13;97564.38;;;16.93;48.77
54306;BME280;66145;45.188;5.712;2024-03-29T08:16:39;97526.84;;;16.77;48.73
54306;BME280;66145;45.188;5.712;2024-03-29T08:19:04;97556.88;;;16.90;48.60
54306;BME280;66145;45.188;5.712;2024-03-29T08:21:30;97568.59;;;16.90;49.05
54306;BME280;66145;45.188;5.712;2024-03-29T08:23:55;97526.28;;;16.71;48.99
54306;BME280;66145;45.188;5.712;2024-03-29T08:26:22;97555.41;;;16.92;48.90
54306;BME280;66145;45.188;5.712;2024-03-29T08:28:47;97559.59;;;16.90;48.91
54306;BME280;66145;45.188;5.712;2024-03-29T08:31:13;97553.00;;;16.91;48.99
54306;BME280;66145;45.188;5.712;2024-03-29T08:33:38;97552.78;;;16.83;48.88
54306;BME280;66145;45.188;5.712;2024-03-29T08:36:05;97565.41;;;16.88;48.68
54306;BME280;66145;45.188;5.712;2024-03-29T08:38:31;97565.97;;;16.94;48.77
54306;BME280;66145;45.188;5.712;2024-03-29T08:40:56;97548.34;;;16.91;48.97
54306;BME280;66145;45.188;5.712;2024-03-29T08:43:21;97548.56;;;16.86;48.83
54306;BME280;66145;45.188;5.712;2024-03-29T08:45:47;97560.88;;;16.92;48.98
54306;BME280;66145;45.188;5.712;2024-03-29T08:48:13;97516.03;;;16.68;48.64
54306;BME280;66145;45.188;5.712;2024-03-29T08:50:39;97549.47;;;16.90;48.67
54306;BME280;66145;45.188;5.712;2024-03-29T08:53:04;97548.69;;;16.90;48.61
54306;BME280;66145;45.188;5.712;2024-03-29T08:55:30;97543.81;;;16.95;48.62
54306;BME280;66145;45.188;5.712;2024-03-29T08:58:00;97541.50;;;16.85;48.64
54306;BME280;66145;45.188;5.712;2024-03-29T09:00:27;97536.97;;;16.89;49.06
54306;BME280;66145;45.188;5.712;2024-03-29T09:02:53;97555.28;;;16.88;49.02
54306;BME280;66145;45.188;5.712;2024-03-29T09:05:18;97547.22;;;16.92;48.73
54306;BME280;66145;45.188;5.712;2024-03-29T09:07:44;97541.16;;;16.86;48.70
54306;BME280;66145;45.188;5.712;2024-03-29T09:10:10;97533.69;;;16.83;49.04
54306;BME280;66145;45.188;5.712;2024-03-29T09:12:35;97552.81;;;16.96;48.71
54306;BME280;66145;45.188;5.712;2024-03-29T09:15:01;97538.66;;;16.94;48.96
54306;BME280;66145;45.188;5.712;2024-03-29T09:17:26;97522.84;;;16.87;48.76
54306;BME280;66145;45.188;5.712;2024-03-29T09:19:52;97541.50;;;16.85;48.90
54306;BME280;66145;45.188;5.712;2024-03-29T09:22:17;97543.66;;;16.92;48.69
54306;BME280;66145;45.188;5.712;2024-03-29T09:24:43;97519.22;;;16.70;48.60
54306;BME280;66145;45.188;5.712;2024-03-29T09:27:08;97541.75;;;16.92;48.57
54306;BME280;66145;45.188;5.712;2024-03-29T09:29:34;97522.03;;;16.86;48.86
54306;BME280;66145;45.188;5.712;2024-03-29T09:31:59;97539.69;;;16.89;48.54
54306;BME280;66145;45.188;5.712;2024-03-29T09:34:27;97527.09;;;16.97;48.76
54306;BME280;66145;45.188;5.712;2024-03-29T09:36:52;97541.88;;;16.96;48.75
54306;BME280;66145;45.188;5.712;2024-03-29T09:39:17;97537.75;;;16.90;48.60
54306;BME280;66145;45.188;5.712;2024-03-29T09:41:47;97524.34;;;16.84;48.57
54306;BME280;66145;45.188;5.712;2024-03-29T09:44:12;97510.34;;;16.86;48.74
54306;BME280;66145;45.188;5.712;2024-03-29T09:46:38;97526.63;;;16.95;48.74
54306;BME280;66145;45.188;5.712;2024-03-29T09:49:06;97495.78;;;16.82;48.80
54306;BME280;66145;45.188;5.712;2024-03-29T09:51:32;97490.00;;;16.83;48.74
54306;BME280;66145;45.188;5.712;2024-03-29T09:53:59;97491.78;;;16.92;48.68
54306;BME280;66145;45.188;5.712;2024-03-29T09:56:26;97483.22;;;16.93;48.71
54306;BME280;66145;45.188;5.712;2024-03-29T09:58:52;97474.38;;;16.84;48.42
54306;BME280;66145;45.188;5.712;2024-03-29T10:01:18;97462.31;;;16.85;48.41
54306;BME280;66145;45.188;5.712;2024-03-29T10:03:49;97475.41;;;16.92;48.66
54306;BME280;66145;45.188;5.712;2024-03-29T10:06:18;97464.69;;;16.86;48.49
54306;BME280;66145;45.188;5.712;2024-03-29T10:08:45;97479.84;;;16.96;48.43
54306;BME280;66145;45.188;5.712;2024-03-29T10:11:10;97468.00;;;16.92;48.45
54306;BME280;66145;45.188;5.712;2024-03-29T10:13:36;97462.31;;;16.97;48.71
54306;BME280;66145;45.188;5.712;2024-03-29T10:16:03;97445.25;;;16.88;48.54
54306;BME280;66145;45.188;5.712;2024-03-29T10:18:29;97458.81;;;16.97;48.72
54306;BME280;66145;45.188;5.712;2024-03-29T10:21:00;97456.53;;;16.99;48.37
54306;BME280;66145;45.188;5.712;2024-03-29T10:23:29;97444.13;;;16.89;48.42
54306;BME280;66145;45.188;5.712;2024-03-29T10:25:55;97456.84;;;16.97;48.41
54306;BME280;66145;45.188;5.712;2024-03-29T10:28:20;97440.34;;;16.94;48.61
54306;BME280;66145;45.188;5.712;2024-03-29T10:30:46;97431.50;;;16.84;48.61
54306;BME280;66145;45.188;5.712;2024-03-29T10:33:15;97469.28;;;16.95;48.50
54306;BME280;66145;45.188;5.712;2024-03-29T10:35:44;97454.13;;;16.97;48.66
54306;BME280;66145;45.188;5.712;2024-03-29T10:38:10;97424.34;;;16.80;48.51
54306;BME280;66145;45.188;5.712;2024-03-29T10:40:38;97442.75;;;16.95;48.42
54306;BME280;66145;45.188;5.712;2024-03-29T10:43:09;97426.03;;;16.84;48.30
54306;BME280;66145;45.188;5.712;2024-03-29T10:45:38;97447.97;;;17.00;48.60
54306;BME280;66145;45.188;5.712;2024-03-29T10:48:04;97448.34;;;16.99;48.60
54306;BME280;66145;45.188;5.712;2024-03-29T10:50:34;97439.69;;;16.97;48.55
54306;BME280;66145;45.188;5.712;2024-03-29T10:53:00;97438.09;;;16.96;48.44
54306;BME280;66145;45.188;5.712;2024-03-29T10:55:30;97428.19;;;16.91;48.51
54306;BME280;66145;45.188;5.712;2024-03-29T10:57:58;97427.38;;;16.91;48.73
54306;BME280;66145;45.188;5.712;2024-03-29T11:00:25;97403.28;;;16.80;48.39
54306;BME280;66145;45.188;5.712;2024-03-29T11:03:13;97438.19;;;16.99;48.38
54306;BME280;66145;45.188;5.712;2024-03-29T11:05:45;97422.50;;;16.96;48.72
54306;BME280;66145;45.188;5.712;2024-03-29T11:08:12;97394.28;;;16.92;48.36
54306;BME280;66145;45.188;5.712;2024-03-29T11:10:44;97403.72;;;16.95;48.46
54306;BME280;66145;45.188;5.712;2024-03-29T11:13:34;97401.09;;;16.98;48.61
54306;BME280;66145;45.188;5.712;2024-03-29T11:15:59;97403.63;;;16.91;48.48
54306;BME280;66145;45.188;5.712;2024-03-29T11:18:26;97388.81;;;16.92;48.55
54306;BME280;66145;45.188;5.712;2024-03-29T11:20:53;97393.25;;;16.97;48.61
54306;BME280;66145;45.188;5.712;2024-03-29T11:23:20;97393.59;;;16.95;48.53
54306;BME280;66145;45.188;5.712;2024-03-29T11:25:50;97388.66;;;17.01;48.31
54306;BME280;66145;45.188;5.712;2024-03-29T11:28:26;97382.78;;;16.99;48.42
54306;BME280;66145;45.188;5.712;2024-03-29T11:30:57;97367.53;;;16.98;48.51
54306;BME280;66145;45.188;5.712;2024-03-29T11:33:34;97362.28;;;16.93;48.06
54306;BME280;66145;45.188;5.712;2024-03-29T11:36:09;97366.03;;;17.00;48.38
54306;BME280;66145;45.188;5.712;2024-03-29T11:38:35;97337.50;;;16.85;48.27
54306;BME280;66145;45.188;5.712;2024-03-29T11:41:27;97362.84;;;16.98;48.55
54306;BME280;66145;45.188;5.712;2024-03-29T11:43:54;97353.66;;;16.91;48.54
54306;BME280;66145;45.188;5.712;2024-03-29T11:46:21;97354.66;;;16.98;48.43
54306;BME280;66145;45.188;5.712;2024-03-29T11:48:47;97365.59;;;16.98;48.57
54306;BME280;66145;45.188;5.712;2024-03-29T11:51:16;97307.38;;;16.82;48.61
54306;BME280;66145;45.188;5.712;2024-03-29T11:53:42;97356.25;;;16.99;48.57
54306;BME280;66145;45.188;5.712;2024-03-29T11:56:07;97345.25;;;16.96;48.66
54306;BME280;66145;45.188;5.712;2024-03-29T11:58:34;97342.25;;;17.01;48.13
54306;BME280;66145;45.188;5.712;2024-03-29T12:01:00;97346.38;;;16.95;48.56
54306;BME280;66145;45.188;5.712;2024-03-29T12:03:28;97327.56;;;16.93;48.32
54306;BME280;66145;45.188;5.712;2024-03-29T12:05:55;97329.31;;;16.98;48.29
54306;BME280;66145;45.188;5.712;2024-03-29T12:08:25;97314.63;;;16.90;48.17
54306;BME280;66145;45.188;5.712;2024-03-29T12:10:51;97334.50;;;17.03;48.20
54306;BME280;66145;45.188;5.712;2024-03-29T12:13:17;97332.25;;;16.93;48.50
54306;BME280;66145;45.188;5.712;2024-03-29T12:15:43;97300.25;;;16.93;48.29
54306;BME280;66145;45.188;5.712;2024-03-29T12:18:09;97324.63;;;16.98;48.69
54306;BME280;66145;45.188;5.712;2024-03-29T12:20:35;97315.66;;;16.98;48.41
54306;BME280;66145;45.188;5.712;2024-03-29T12:23:04;97302.31;;;16.96;48.37
54306;BME280;66145;45.188;5.712;2024-03-29T12:25:30;97308.69;;;17.00;48.44
54306;BME280;66145;45.188;5.712;2024-03-29T12:27:57;97306.41;;;17.02;48.31
54306;BME280;66145;45.188;5.712;2024-03-29T12:30:23;97291.19;;;16.89;48.15
54306;BME280;66145;45.188;5.712;2024-03-29T12:33:03;97283.09;;;16.93;48.50
54306;BME280;66145;45.188;5.712;2024-03-29T12:35:28;97318.09;;;17.03;48.43
54306;BME280;66145;45.188;5.712;2024-03-29T12:38:03;97291.59;;;17.03;48.42
54306;BME280;66145;45.188;5.712;2024-03-29T12:40:30;97286.75;;;16.97;48.30
54306;BME280;66145;45.188;5.712;2024-03-29T12:43:02;97280.34;;;16.93;48.21
54306;BME280;66145;45.188;5.712;2024-03-29T12:45:29;97261.59;;;16.91;48.40
54306;BME280;66145;45.188;5.712;2024-03-29T12:47:54;97284.81;;;16.97;48.42
54306;BME280;66145;45.188;5.712;2024-03-29T12:50:25;97251.09;;;16.93;48.30
54306;BME280;66145;45.188;5.712;2024-03-29T12:52:57;97278.28;;;17.02;48.24
54306;BME280;66145;45.188;5.712;2024-03-29T12:55:23;97264.09;;;16.96;48.30
54306;BME280;66145;45.188;5.712;2024-03-29T12:57:49;97281.47;;;17.04;48.23